createdAt,value
2018-08-16T00:02:21.539Z,101648.87
2018-08-16T00:04:52.612Z,101649.30
2018-08-16T00:07:21.589Z,101649.62
2018-08-16T00:09:51.697Z,101646.83
2018-08-16T00:12:21.200Z,101652.94
2018-08-16T00:14:52.245Z,101651.30
2018-08-16T00:17:21.461Z,101646.41
2018-08-16T00:19:50.634Z,101641.83
2018-08-16T00:22:19.551Z,101638.29
2018-08-16T00:24:49.479Z,101632.97
2018-08-16T00:27:19.483Z,101634.67
2018-08-16T00:29:48.396Z,101627.84
2018-08-16T00:32:17.315Z,101632.70
2018-08-16T00:34:47.291Z,101625.54
2018-08-16T00:37:22.155Z,101630.67
2018-08-16T00:39:55.166Z,101622.53
2018-08-16T00:42:24.222Z,101621.53
2018-08-16T00:44:54.245Z,101619.92
2018-08-16T00:47:24.309Z,101622.22
2018-08-16T00:49:53.294Z,101610.31
2018-08-16T00:52:24.395Z,101613.25
2018-08-16T00:54:54.404Z,101604.81
2018-08-16T00:57:23.329Z,101604.39
2018-08-16T00:59:54.423Z,101603.00
2018-08-16T01:02:29.054Z,101605.03
2018-08-16T01:04:59.997Z,101599.75
2018-08-16T01:07:28.891Z,101600.34
2018-08-16T01:09:59.876Z,101608.56
2018-08-16T01:12:28.919Z,101601.17
2018-08-16T01:15:05.443Z,101603.70
2018-08-16T01:17:34.749Z,101599.31
2018-08-16T01:20:04.960Z,101602.84
2018-08-16T01:22:34.133Z,101595.06
2018-08-16T01:25:10.589Z,101595.70
2018-08-16T01:27:51.479Z,101596.73
2018-08-16T01:30:20.565Z,101592.02
2018-08-16T01:32:49.511Z,101591.39
2018-08-16T01:35:19.443Z,101594.98
2018-08-16T01:37:50.509Z,101598.41
2018-08-16T01:40:19.707Z,101593.63
2018-08-16T01:42:49.714Z,101586.02
2018-08-16T01:45:18.748Z,101581.81
2018-08-16T01:47:47.739Z,101583.77
2018-08-16T01:50:18.724Z,101580.67
2018-08-16T01:52:48.635Z,101584.70
2018-08-16T01:55:17.674Z,101586.81
2018-08-16T01:57:46.781Z,101588.88
2018-08-16T02:00:20.626Z,101585.31
2018-08-16T02:02:50.974Z,101583.34
2018-08-16T02:05:24.413Z,101574.67
2018-08-16T02:08:06.216Z,101581.34
2018-08-16T02:10:40.056Z,101580.52
2018-08-16T02:13:10.039Z,101583.31
2018-08-16T02:15:39.450Z,101579.41
2018-08-16T02:18:08.517Z,101573.02
2018-08-16T02:20:38.639Z,101576.73
2018-08-16T02:23:08.739Z,101578.77
2018-08-16T02:25:37.888Z,101572.87
2018-08-16T02:28:12.736Z,101571.38
2018-08-16T02:30:42.713Z,101566.59
2018-08-16T02:33:11.664Z,101569.13
2018-08-16T02:35:41.564Z,101564.88
2018-08-16T02:38:10.546Z,101568.38
2018-08-16T02:40:39.527Z,101568.09
2018-08-16T02:43:09.488Z,101570.95
2018-08-16T02:45:38.507Z,101569.53
2018-08-16T02:48:07.523Z,101568.67
2018-08-16T02:50:36.435Z,101568.53
2018-08-16T02:53:07.448Z,101566.41
2018-08-16T02:55:36.504Z,101562.34
2018-08-16T02:58:07.414Z,101560.84
2018-08-16T03:00:36.495Z,101558.02
2018-08-16T03:03:06.595Z,101557.31
2018-08-16T03:05:36.627Z,101552.20
2018-08-16T03:08:07.037Z,101551.31
2018-08-16T03:10:39.555Z,101550.20
2018-08-16T03:13:10.583Z,101551.49
2018-08-16T03:15:40.557Z,101558.17
2018-08-16T03:18:09.619Z,101551.34
2018-08-16T03:20:38.719Z,101553.17
2018-08-16T03:23:07.969Z,101556.67
2018-08-16T03:25:36.955Z,101550.24
2018-08-16T03:28:05.889Z,101553.77
2018-08-16T03:30:34.838Z,101553.84
2018-08-16T03:33:03.827Z,101552.70
2018-08-16T03:35:33.015Z,101551.24
2018-08-16T03:38:02.029Z,101550.88
2018-08-16T03:40:31.026Z,101549.16
2018-08-16T03:42:59.936Z,101558.75
2018-08-16T03:45:30.009Z,101554.80
2018-08-16T03:47:58.965Z,101558.17
2018-08-16T03:50:28.035Z,101553.75
2018-08-16T03:52:57.040Z,101547.58
2018-08-16T03:55:26.061Z,101552.19
2018-08-16T03:57:55.179Z,101557.17
2018-08-16T04:00:24.166Z,101558.32
2018-08-16T04:02:53.207Z,101553.00
2018-08-16T04:05:22.116Z,101553.45
2018-08-16T04:07:51.148Z,101553.95
2018-08-16T04:10:20.109Z,101561.80
2018-08-16T04:12:49.123Z,101559.58
2018-08-16T04:15:18.110Z,101560.94
2018-08-16T04:17:47.100Z,101558.23
2018-08-16T04:20:16.069Z,101560.69
2018-08-16T04:22:45.235Z,101560.69
2018-08-16T04:25:14.160Z,101563.05
2018-08-16T04:27:43.159Z,101564.51
2018-08-16T04:30:12.530Z,101560.38
2018-08-16T04:32:42.113Z,101570.13
2018-08-16T04:35:11.131Z,101558.22
2018-08-16T04:37:39.980Z,101558.92
2018-08-16T04:40:09.905Z,101556.86
2018-08-16T04:42:42.858Z,101560.59
2018-08-16T04:45:11.863Z,101562.28
2018-08-16T04:47:40.975Z,101560.07
2018-08-16T04:50:11.779Z,101555.35
2018-08-16T04:52:41.287Z,101563.48
2018-08-16T04:55:10.679Z,101562.49
2018-08-16T04:57:39.663Z,101556.05
2018-08-16T05:00:11.318Z,101555.00
2018-08-16T05:02:40.295Z,101552.08
2018-08-16T05:05:09.469Z,101555.30
2018-08-16T05:07:40.369Z,101555.17
2018-08-16T05:10:15.007Z,101544.06
2018-08-16T05:12:44.082Z,101557.61
2018-08-16T05:15:13.727Z,101551.54
2018-08-16T05:17:42.708Z,101544.72
2018-08-16T05:20:13.089Z,101549.53
2018-08-16T05:22:42.285Z,101550.41
2018-08-16T05:25:11.227Z,101546.09
2018-08-16T05:27:40.255Z,101541.75
2018-08-16T05:30:11.526Z,101540.45
2018-08-16T05:32:40.567Z,101545.83
2018-08-16T05:35:09.965Z,101545.83
2018-08-16T05:37:39.017Z,101549.88
2018-08-16T05:40:09.450Z,101547.27
2018-08-16T05:42:38.955Z,101540.00
2018-08-16T05:45:08.493Z,101544.45
2018-08-16T05:47:37.747Z,101537.08
2018-08-16T05:50:09.074Z,101536.54
2018-08-16T05:52:38.161Z,101531.16
2018-08-16T05:55:07.615Z,101533.32
2018-08-16T05:57:36.747Z,101538.08
2018-08-16T06:00:08.254Z,101528.37
2018-08-16T06:02:37.220Z,101525.06
2018-08-16T06:05:07.077Z,101524.39
2018-08-16T06:07:36.467Z,101520.86
2018-08-16T06:10:06.394Z,101518.86
2018-08-16T06:12:35.295Z,101512.64
2018-08-16T06:15:04.949Z,101513.08
2018-08-16T06:17:33.956Z,101515.04
2018-08-16T06:20:02.925Z,101515.06
2018-08-16T06:22:31.882Z,101516.41
2018-08-16T06:25:00.944Z,101517.24
2018-08-16T06:27:30.040Z,101518.08
2018-08-16T06:29:59.023Z,101520.12
2018-08-16T06:32:27.958Z,101518.16
2018-08-16T06:34:57.075Z,101511.15
2018-08-16T06:37:26.148Z,101509.88
2018-08-16T06:39:55.270Z,101511.26
2018-08-16T06:42:24.244Z,101513.30
2018-08-16T06:44:53.200Z,101504.45
2018-08-16T06:47:22.210Z,101474.64
2018-08-16T06:49:51.124Z,101506.44
2018-08-16T06:52:20.149Z,101508.35
2018-08-16T06:54:49.109Z,101500.08
2018-08-16T06:57:17.967Z,101498.20
2018-08-16T06:59:47.144Z,101495.52
2018-08-16T07:02:16.124Z,101494.28
2018-08-16T07:04:45.166Z,101499.58
2018-08-16T07:07:14.216Z,101496.57
2018-08-16T07:09:43.210Z,101495.39
2018-08-16T07:12:12.540Z,101502.98
2018-08-16T07:14:41.495Z,101498.97
2018-08-16T07:17:10.854Z,101493.81
2018-08-16T07:19:40.000Z,101484.22
2018-08-16T07:22:09.476Z,101495.05
2018-08-16T07:24:38.574Z,101491.38
2018-08-16T07:27:07.588Z,101498.67
2018-08-16T07:29:36.585Z,101495.14
2018-08-16T07:32:05.629Z,101498.52
2018-08-16T07:34:34.680Z,101499.28
2018-08-16T07:37:03.642Z,101499.66
2018-08-16T07:39:32.660Z,101497.01
2018-08-16T07:42:01.656Z,101492.75
2018-08-16T07:44:31.693Z,101496.04
2018-08-16T07:47:00.669Z,101489.99
2018-08-16T07:49:29.684Z,101490.41
2018-08-16T07:51:58.815Z,101483.88
2018-08-16T07:54:27.739Z,101490.66
2018-08-16T07:56:56.798Z,101487.02
2018-08-16T07:59:25.811Z,101492.47
2018-08-16T08:01:54.937Z,101494.17
2018-08-16T08:04:24.950Z,101490.37
2018-08-16T08:06:54.003Z,101493.46
2018-08-16T08:09:23.114Z,101490.98
2018-08-16T08:11:52.276Z,101491.63
2018-08-16T08:14:21.183Z,101496.44
2018-08-16T08:16:50.138Z,101495.66
2018-08-16T08:19:19.116Z,101497.16
2018-08-16T08:21:48.091Z,101496.83
2018-08-16T08:24:17.086Z,101496.77
2018-08-16T08:26:46.058Z,101495.34
2018-08-16T08:29:15.050Z,101501.75
2018-08-16T08:31:44.151Z,101491.11
2018-08-16T08:34:13.076Z,101489.11
2018-08-16T08:36:53.402Z,101492.25
2018-08-16T08:39:22.425Z,101497.78
2018-08-16T08:41:51.389Z,101500.98
2018-08-16T08:44:22.511Z,101500.00
2018-08-16T08:46:52.214Z,101496.94
2018-08-16T08:49:21.417Z,101493.15
2018-08-16T08:51:51.305Z,101487.70
2018-08-16T08:54:38.439Z,101495.79
2018-08-16T08:57:18.719Z,101489.20
2018-08-16T08:59:53.091Z,101495.69
2018-08-16T09:02:22.002Z,101498.14
2018-08-16T09:04:50.967Z,101500.94
2018-08-16T09:07:20.947Z,101506.29
2018-08-16T09:11:01.710Z,101511.49
2018-08-16T09:13:42.379Z,101508.72
2018-08-16T09:16:13.937Z,101510.32
2018-08-16T09:18:42.963Z,101503.30
2018-08-16T09:21:12.611Z,101504.28
2018-08-16T09:23:41.752Z,101509.26
2018-08-16T09:26:16.160Z,101513.34
2018-08-16T09:28:45.157Z,101510.63
2018-08-16T09:31:25.881Z,101506.87
2018-08-16T09:34:22.023Z,101510.63
2018-08-16T09:36:50.995Z,101515.05
2018-08-16T09:39:20.003Z,101500.02
2018-08-16T09:41:50.053Z,101507.28
2018-08-16T09:44:19.106Z,101501.97
2018-08-16T09:47:14.789Z,101503.83
2018-08-16T09:49:45.925Z,101506.41
2018-08-16T09:52:15.485Z,101509.88
2018-08-16T09:54:44.453Z,101508.27
2018-08-16T09:57:14.255Z,101501.59
2018-08-16T09:59:43.115Z,101509.89
2018-08-16T10:02:14.349Z,101503.34
2018-08-16T10:04:43.267Z,101503.34
2018-08-16T10:07:12.180Z,101504.70
2018-08-16T10:09:41.154Z,101504.83
2018-08-16T10:12:10.197Z,101503.66
2018-08-16T10:14:39.064Z,101494.91
2018-08-16T10:17:08.081Z,101494.13
2018-08-16T10:19:37.089Z,101493.01
2018-08-16T10:22:06.108Z,101488.88
2018-08-16T10:24:35.117Z,101494.08
2018-08-16T10:27:04.264Z,101480.94
2018-08-16T10:29:33.255Z,101462.90
2018-08-16T10:32:03.339Z,101467.23
2018-08-16T10:34:32.222Z,101464.13
2018-08-16T10:37:01.429Z,101469.55
2018-08-16T10:39:30.410Z,101466.70
2018-08-16T10:41:59.425Z,101471.39
2018-08-16T10:44:29.398Z,101470.56
2018-08-16T10:46:58.275Z,101463.70
2018-08-16T10:49:27.199Z,101460.63
2018-08-16T10:51:56.237Z,101461.40
2018-08-16T10:54:25.203Z,101464.20
2018-08-16T10:56:54.226Z,101466.95
2018-08-16T10:59:23.189Z,101469.05
2018-08-16T11:01:52.147Z,101469.73
2018-08-16T11:04:21.221Z,101468.73
2018-08-16T11:06:50.179Z,101471.83
2018-08-16T11:09:19.221Z,101463.40
2018-08-16T11:11:48.148Z,101468.16
2018-08-16T11:14:17.156Z,101467.30
2018-08-16T11:16:46.192Z,101467.27
2018-08-16T11:19:15.142Z,101469.02
2018-08-16T11:21:44.163Z,101462.85
2018-08-16T11:24:13.163Z,101468.77
2018-08-16T11:26:42.118Z,101463.58
2018-08-16T11:29:11.128Z,101459.14
2018-08-16T11:31:40.106Z,101463.50
2018-08-16T11:34:10.080Z,101461.23
2018-08-16T11:36:39.180Z,101467.11
2018-08-16T11:39:08.197Z,101474.94
2018-08-16T11:41:37.231Z,101468.17
2018-08-16T11:44:06.309Z,101467.15
2018-08-16T11:46:35.418Z,101464.00
2018-08-16T11:49:04.342Z,101464.37
2018-08-16T11:51:33.262Z,101462.09
2018-08-16T11:54:02.326Z,101457.41
2018-08-16T11:56:31.241Z,101461.53
2018-08-16T11:59:00.267Z,101463.16
2018-08-16T12:01:29.311Z,101466.69
2018-08-16T12:03:58.251Z,101463.79
2018-08-16T12:06:27.523Z,101463.96
2018-08-16T12:08:56.505Z,101464.69
2018-08-16T12:11:25.629Z,101467.72
2018-08-16T12:13:54.631Z,101467.63
2018-08-16T12:16:23.656Z,101455.87
2018-08-16T12:18:52.580Z,101463.11
2018-08-16T12:21:21.518Z,101466.34
2018-08-16T12:23:50.497Z,101472.41
2018-08-16T12:26:19.536Z,101469.84
2018-08-16T12:28:48.475Z,101467.33
2018-08-16T12:31:17.559Z,101466.82
2018-08-16T12:33:46.576Z,101474.44
2018-08-16T12:36:15.655Z,101477.34
2018-08-16T12:38:44.641Z,101471.71
2018-08-16T12:41:13.780Z,101473.70
2018-08-16T12:43:42.641Z,101463.83
2018-08-16T12:46:11.685Z,101467.83
2018-08-16T12:48:40.612Z,101469.20
2018-08-16T12:51:09.520Z,101463.83
2018-08-16T12:53:38.597Z,101463.95
2018-08-16T12:56:08.613Z,101463.89
2018-08-16T12:58:37.734Z,101463.98
2018-08-16T13:01:06.819Z,101456.14
2018-08-16T13:03:35.905Z,101453.78
2018-08-16T13:06:05.001Z,101448.59
2018-08-16T13:08:34.083Z,101447.82
2018-08-16T13:11:03.157Z,101444.13
2018-08-16T13:13:32.127Z,101451.19
2018-08-16T13:16:01.056Z,101448.17
2018-08-16T13:18:29.968Z,101457.05
2018-08-16T13:20:59.110Z,101448.53
2018-08-16T13:23:28.132Z,101447.11
2018-08-16T13:25:57.105Z,101445.41
2018-08-16T13:28:26.148Z,101448.67
2018-08-16T13:30:55.180Z,101450.67
2018-08-16T13:33:24.171Z,101453.41
2018-08-16T13:35:53.137Z,101448.85
2018-08-16T13:38:22.130Z,101439.67
2018-08-16T13:40:51.204Z,101437.36
2018-08-16T13:43:20.107Z,101446.92
2018-08-16T13:45:49.126Z,101445.62
2018-08-16T13:48:18.172Z,101448.78
2018-08-16T13:50:47.298Z,101447.94
2018-08-16T13:53:16.373Z,101448.77
2018-08-16T13:55:45.432Z,101454.50
2018-08-16T13:58:14.492Z,101450.48
2018-08-16T14:00:43.508Z,101451.25
2018-08-16T14:03:12.577Z,101452.55
2018-08-16T14:05:41.595Z,101458.35
2018-08-16T14:08:10.569Z,101450.80
2018-08-16T14:10:39.639Z,101450.36
2018-08-16T14:13:09.602Z,101451.14
2018-08-16T14:15:39.453Z,101460.16
2018-08-16T14:18:08.476Z,101453.75
2018-08-16T14:20:37.616Z,101456.78
2018-08-16T14:23:06.743Z,101453.53
2018-08-16T14:25:35.717Z,101454.53
2018-08-16T14:28:04.768Z,101448.08
2018-08-16T14:30:33.780Z,101444.70
2018-08-16T14:33:02.875Z,101450.09
2018-08-16T14:35:31.868Z,101444.83
2018-08-16T14:38:00.899Z,101453.22
2018-08-16T14:40:29.841Z,101444.11
2018-08-16T14:42:58.860Z,101448.66
2018-08-16T14:45:27.880Z,101454.11
2018-08-16T14:47:56.876Z,101451.73
2018-08-16T14:50:25.789Z,101455.17
2018-08-16T14:52:54.678Z,101450.23
2018-08-16T14:55:23.611Z,101457.05
2018-08-16T14:57:52.611Z,101455.17
2018-08-16T15:00:21.691Z,101452.81
2018-08-16T15:02:50.661Z,101452.75
2018-08-16T15:05:19.715Z,101450.50
2018-08-16T15:07:54.218Z,101453.29
2018-08-16T15:10:28.866Z,101448.14
2018-08-16T15:12:57.912Z,101447.05
2018-08-16T15:15:27.040Z,101453.53
2018-08-16T15:17:57.018Z,101450.42
2018-08-16T15:20:26.090Z,101451.13
2018-08-16T15:22:55.527Z,101449.84
2018-08-16T15:25:24.462Z,101444.45
2018-08-16T15:27:53.531Z,101451.45
2018-08-16T15:30:22.567Z,101450.48
2018-08-16T15:32:51.482Z,101451.20
2018-08-16T15:35:20.432Z,101452.88
2018-08-16T15:37:49.461Z,101452.50
2018-08-16T15:40:18.595Z,101462.42
2018-08-16T15:42:47.612Z,101461.86
2018-08-16T15:45:16.627Z,101466.30
2018-08-16T15:47:45.599Z,101451.51
2018-08-16T15:50:14.556Z,101462.26
2018-08-16T15:52:43.584Z,101458.72
2018-08-16T15:55:12.552Z,101458.07
2018-08-16T15:57:41.505Z,101466.06
2018-08-16T16:00:11.830Z,101470.73
2018-08-16T16:02:42.198Z,101473.67
2018-08-16T16:05:11.317Z,101466.30
2018-08-16T16:07:40.343Z,101472.19
2018-08-16T16:10:09.736Z,101474.95
2018-08-16T16:12:39.484Z,101474.05
2018-08-16T16:15:09.774Z,101475.08
2018-08-16T16:17:38.864Z,101484.53
2018-08-16T16:20:07.964Z,101480.57
2018-08-16T16:22:38.436Z,101470.73
2018-08-16T16:25:07.904Z,101472.23
2018-08-16T16:27:37.125Z,101477.45
2018-08-16T16:30:07.649Z,101466.67
2018-08-16T16:32:36.667Z,101461.97
2018-08-16T16:35:06.872Z,101464.48
2018-08-16T16:37:35.937Z,101460.41
2018-08-16T16:40:05.855Z,101467.53
2018-08-16T16:42:34.774Z,101456.49
2018-08-16T16:45:03.915Z,101459.75
2018-08-16T16:47:32.820Z,101453.67
2018-08-16T16:50:01.806Z,101456.92
2018-08-16T16:52:30.802Z,101462.86
2018-08-16T16:54:59.858Z,101452.06
2018-08-16T16:57:29.808Z,101454.44
2018-08-16T16:59:58.740Z,101448.41
2018-08-16T17:02:27.817Z,101455.70
2018-08-16T17:04:56.798Z,101453.36
2018-08-16T17:07:26.649Z,101451.89
2018-08-16T17:09:55.548Z,101456.20
2018-08-16T17:12:24.678Z,101461.66
2018-08-16T17:14:53.628Z,101456.23
2018-08-16T17:17:23.534Z,101446.48
2018-08-16T17:19:52.423Z,101454.22
2018-08-16T17:22:21.428Z,101459.30
2018-08-16T17:24:50.452Z,101457.07
2018-08-16T17:27:20.458Z,101450.75
2018-08-16T17:29:49.479Z,101453.47
2018-08-16T17:32:18.852Z,101458.17
2018-08-16T17:34:47.923Z,101453.89
2018-08-16T17:37:16.928Z,101452.52
2018-08-16T17:39:46.106Z,101456.59
2018-08-16T17:42:15.073Z,101451.77
2018-08-16T17:44:44.009Z,101454.61
2018-08-16T17:47:12.936Z,101441.91
2018-08-16T17:49:42.023Z,101436.59
2018-08-16T17:52:11.057Z,101431.27
2018-08-16T17:54:39.957Z,101426.81
2018-08-16T17:57:09.241Z,101423.20
2018-08-16T17:59:39.165Z,101417.26
2018-08-16T18:02:08.183Z,101417.27
2018-08-16T18:04:37.083Z,101414.52
2018-08-16T18:07:06.342Z,101414.03
2018-08-16T18:09:35.310Z,101416.51
2018-08-16T18:12:04.202Z,101424.55
2018-08-16T18:14:33.224Z,101434.42
2018-08-16T18:17:02.224Z,101443.59
2018-08-16T18:19:31.211Z,101445.44
2018-08-16T18:22:00.237Z,101442.86
2018-08-16T18:24:29.224Z,101445.45
2018-08-16T18:26:58.117Z,101446.08
2018-08-16T18:29:27.203Z,101447.56
2018-08-16T18:31:57.258Z,101451.03
2018-08-16T18:34:26.383Z,101440.16
2018-08-16T18:36:55.485Z,101451.65
2018-08-16T18:39:24.544Z,101449.67
2018-08-16T18:41:53.711Z,101449.80
2018-08-16T18:44:22.732Z,101449.79
2018-08-16T18:46:51.795Z,101442.14
2018-08-16T18:49:20.784Z,101440.27
2018-08-16T18:51:49.994Z,101439.92
2018-08-16T18:54:19.022Z,101443.51
2018-08-16T18:56:48.012Z,101439.19
2018-08-16T18:59:17.053Z,101437.20
2018-08-16T19:01:45.970Z,101444.36
2018-08-16T19:04:14.884Z,101452.29
2018-08-16T19:06:44.160Z,101461.42
2018-08-16T19:09:13.128Z,101466.86
2018-08-16T19:11:43.108Z,101474.78
2018-08-16T19:14:12.190Z,101468.34
2018-08-16T19:16:41.176Z,101482.67
2018-08-16T19:19:10.383Z,101483.05
2018-08-16T19:21:39.478Z,101482.44
2018-08-16T19:24:08.616Z,101479.95
2018-08-16T19:26:37.617Z,101480.57
2018-08-16T19:29:06.566Z,101483.91
2018-08-16T19:31:35.644Z,101487.25
2018-08-16T19:34:04.698Z,101487.13
2018-08-16T19:36:33.730Z,101481.34
2018-08-16T19:39:02.700Z,101487.99
2018-08-16T19:41:31.722Z,101490.13
2018-08-16T19:44:00.633Z,101490.00
2018-08-16T19:46:29.758Z,101494.67
2018-08-16T19:48:58.823Z,101490.98
2018-08-16T19:51:27.804Z,101494.08
2018-08-16T19:53:56.810Z,101495.68
2018-08-16T19:56:25.813Z,101497.27
2018-08-16T19:58:54.848Z,101491.72
2018-08-16T20:01:23.867Z,101487.87
2018-08-16T20:03:52.924Z,101490.71
2018-08-16T20:06:21.978Z,101492.95
2018-08-16T20:08:51.010Z,101473.66
2018-08-16T20:11:19.951Z,101477.11
2018-08-16T20:13:49.066Z,101479.48
2018-08-16T20:16:18.113Z,101475.41
2018-08-16T20:18:52.545Z,101474.28
2018-08-16T20:21:27.104Z,101484.53
2018-08-16T20:23:56.114Z,101477.27
2018-08-16T20:26:25.103Z,101481.34
2018-08-16T20:28:54.245Z,101482.94
2018-08-16T20:31:23.232Z,101481.19
2018-08-16T20:33:52.195Z,101476.38
2018-08-16T20:36:21.226Z,101477.62
2018-08-16T20:38:50.224Z,101478.12
2018-08-16T20:41:19.146Z,101478.84
2018-08-16T20:43:48.242Z,101482.93
2018-08-16T20:46:17.308Z,101481.09
2018-08-16T20:48:46.283Z,101483.30
2018-08-16T20:51:15.278Z,101489.36
2018-08-16T20:53:44.178Z,101496.28
2018-08-16T20:56:13.122Z,101495.30
2018-08-16T20:58:42.210Z,101503.31
2018-08-16T21:01:11.291Z,101500.47
2018-08-16T21:03:40.343Z,101498.78
2018-08-16T21:06:09.311Z,101487.16
2018-08-16T21:08:38.330Z,101484.05
2018-08-16T21:11:07.563Z,101482.78
2018-08-16T21:13:36.584Z,101477.97
2018-08-16T21:16:05.900Z,101481.43
2018-08-16T21:18:34.976Z,101476.61
2018-08-16T21:21:04.028Z,101478.36
2018-08-16T21:23:33.014Z,101491.20
2018-08-16T21:26:01.923Z,101480.59
2018-08-16T21:28:31.003Z,101491.59
2018-08-16T21:30:59.946Z,101504.58
2018-08-16T21:33:28.958Z,101518.17
2018-08-16T21:35:57.952Z,101524.47
2018-08-16T21:38:26.952Z,101530.02
2018-08-16T21:40:55.984Z,101535.58
2018-08-16T21:43:24.934Z,101535.34
2018-08-16T21:45:54.029Z,101538.17
2018-08-16T21:48:23.027Z,101534.31
2018-08-16T21:50:52.015Z,101522.59
2018-08-16T21:53:20.994Z,101509.83
2018-08-16T21:55:50.032Z,101505.85
2018-08-16T21:58:19.001Z,101501.70
2018-08-16T22:00:54.605Z,101511.45
2018-08-16T22:03:25.018Z,101522.84
2018-08-16T22:06:06.874Z,101527.76
2018-08-16T22:08:45.689Z,101523.81
2018-08-16T22:11:14.576Z,101535.64
2018-08-16T22:13:43.568Z,101545.40
2018-08-16T22:16:12.462Z,101548.84
2018-08-16T22:18:41.386Z,101545.17
2018-08-16T22:21:10.672Z,101544.39
2018-08-16T22:23:39.665Z,101550.72
2018-08-16T22:26:08.710Z,101552.59
2018-08-16T22:28:37.639Z,101556.61
2018-08-16T22:31:06.789Z,101551.42
2018-08-16T22:33:35.706Z,101552.09
2018-08-16T22:36:04.622Z,101544.12
2018-08-16T22:38:33.664Z,101538.20
2018-08-16T22:41:02.570Z,101524.61
2018-08-16T22:43:31.488Z,101533.86
2018-08-16T22:46:00.462Z,101557.61
2018-08-16T22:48:29.384Z,101561.05
2018-08-16T22:50:58.271Z,101539.29
2018-08-16T22:53:27.283Z,101543.86
2018-08-16T22:55:56.147Z,101526.95
2018-08-16T22:58:25.085Z,101546.36
2018-08-16T23:00:54.104Z,101532.45
2018-08-16T23:03:23.014Z,101524.11
2018-08-16T23:05:51.888Z,101516.06
2018-08-16T23:08:20.780Z,101519.30
2018-08-16T23:10:49.671Z,101515.94
2018-08-16T23:13:18.653Z,101546.66
2018-08-16T23:15:47.619Z,101548.30
2018-08-16T23:18:16.500Z,101550.47
2018-08-16T23:20:45.423Z,101528.46
2018-08-16T23:23:14.329Z,101505.97
2018-08-16T23:25:43.251Z,101520.73
2018-08-16T23:28:12.147Z,101544.64
2018-08-16T23:30:41.035Z,101555.92
2018-08-16T23:33:10.126Z,101558.78
2018-08-16T23:35:39.038Z,101565.65
2018-08-16T23:38:08.000Z,101542.34
2018-08-16T23:40:36.925Z,101530.50
2018-08-16T23:43:05.911Z,101539.88
2018-08-16T23:45:34.809Z,101525.45
2018-08-16T23:48:14.983Z,101520.05
2018-08-16T23:50:43.949Z,101516.23
2018-08-16T23:53:12.822Z,101493.66
2018-08-16T23:55:41.720Z,101496.44
2018-08-16T23:58:10.611Z,101488.82
